ROKJ(METAR)
12/04 19:00
ROKJ 041000Z 01008KT 9999 FEW020 24/21 Q1016 RMK A3002=
戻る
トップページへ戻る
IMOC Co,.Ltd.